PWSweather.com
Personal Weather Stations
Station Observations
KNYSYRAC2
Fairmount Hills, Fairmount, NY 13219

Fairmount HillsFairmount, NY 13219

Lat: 43.03602, Lon: -76.247151

Elevation: 663

Station Type: Ambient Weather WS-2080

http://weather.cerchia.com

High Low Average
Temperature 73.8°F23.2°F 67.9°F19.9°F 70.7°F21.5°F
Dew Point 64.3°F17.9°F 62.4°F16.9°F 63.3°F17.4°F
Winds 2.5 mph SW4.0 mph SW Calm Calm 0.9 mph 1.4 mph
Wind Gusts 5.6 mph9.0 mph 0.8 mph1.3 mph 3.5 mph5.6 mph
Humidity 83% 72% 78%
Pressure 30.05 in1017.60 in 30.02 in1016.60 in -
Precipitation 0.00 in0.00 in - -
Hour Temp Dew Point Humidity Winds Wind Gusts Pressure Precip Precip Rate Daily Precip Total
12:00 AM 68.6°F20.3°C 65.3°F18.5°C 89% 1.7 mph SSE2.7 kmh SSE 3.9 mph6.3 kmh 30.04 in1017.3 mb 0.00 in0.0 mm 0.00 in0.0 mm 0.00 in0.0 mm
12:15 AM 68.8°F20.4°C 64.1°F17.8°C 85% 1.5 mph SSE2.4 kmh SSE 3.9 mph6.3 kmh 30.03 in1016.9 mb 0.00 in0.0 mm 0.00 in0.0 mm 0.00 in0.0 mm
12:30 AM 68.6°F20.3°C 64.3°F17.9°C 86% 1.0 mph SSE1.6 kmh SSE 2.8 mph4.5 kmh 30.03 in1016.9 mb 0.00 in0.0 mm 0.00 in0.0 mm 0.00 in0.0 mm
12:45 AM 68.4°F20.2°C 64.1°F17.8°C 86% 0.6 mph SE1.0 kmh SE 2.8 mph4.5 kmh 30.04 in1017.3 mb 0.00 in0.0 mm 0.00 in0.0 mm 0.00 in0.0 mm
01:00 AM 68.3°F20.2°C 64.3°F17.9°C 87% 0.1 mph ESE0.2 kmh ESE 2.0 mph3.2 kmh 30.03 in1016.9 mb 0.00 in0.0 mm 0.00 in0.0 mm 0.00 in0.0 mm
01:15 AM 67.9°F19.9°C 63.9°F17.7°C 87% Calm Calm 0.8 mph1.3 kmh 30.03 in1016.9 mb 0.00 in0.0 mm 0.00 in0.0 mm 0.00 in0.0 mm
01:30 AM 67.7°F19.8°C 64.1°F17.8°C 88% 0.2 mph SE0.3 kmh SE 2.0 mph3.2 kmh 30.03 in1016.9 mb 0.00 in0.0 mm 0.00 in0.0 mm 0.00 in0.0 mm
01:45 AM 67.9°F19.9°C 64.2°F17.9°C 88% 1.0 mph SE1.6 kmh SE 2.8 mph4.5 kmh 30.03 in1016.9 mb 0.00 in0.0 mm 0.00 in0.0 mm 0.00 in0.0 mm
02:00 AM 67.7°F19.8°C 63.7°F17.6°C 87% 0.7 mph SSE1.1 kmh SSE 2.8 mph4.5 kmh 30.02 in1016.6 mb 0.00 in0.0 mm 0.00 in0.0 mm 0.00 in0.0 mm
02:15 AM 67.7°F19.8°C 64.1°F17.8°C 88% 1.3 mph SSE2.1 kmh SSE 3.9 mph6.3 kmh 30.01 in1016.3 mb 0.00 in0.0 mm 0.00 in0.0 mm 0.00 in0.0 mm
02:30 AM 67.9°F19.9°C 63.9°F17.7°C 87% 2.0 mph S3.2 kmh S 3.9 mph6.3 kmh 30.02 in1016.6 mb 0.00 in0.0 mm 0.00 in0.0 mm 0.00 in0.0 mm
02:45 AM 67.9°F19.9°C 63.9°F17.7°C 87% 1.9 mph SSE3.1 kmh SSE 3.9 mph6.3 kmh 30.01 in1016.3 mb 0.00 in0.0 mm 0.00 in0.0 mm 0.00 in0.0 mm
03:00 AM 68.1°F20.1°C 64.1°F17.8°C 87% 2.0 mph SSE3.2 kmh SSE 6.7 mph10.8 kmh 30.02 in1016.6 mb 0.00 in0.0 mm 0.00 in0.0 mm 0.00 in0.0 mm
03:15 AM 68.1°F20.1°C 64.1°F17.8°C 87% 1.0 mph SSE1.6 kmh SSE 4.8 mph7.7 kmh 30.01 in1016.3 mb 0.00 in0.0 mm 0.00 in0.0 mm 0.00 in0.0 mm
03:30 AM 68.1°F20.1°C 64.1°F17.8°C 87% 1.2 mph SSW1.9 kmh SSW 8.7 mph14.0 kmh 30.01 in1016.3 mb 0.00 in0.0 mm 0.00 in0.0 mm 0.00 in0.0 mm
03:45 AM 68.3°F20.2°C 64.3°F17.9°C 87% 2.2 mph S3.5 kmh S 8.7 mph14.0 kmh 30.01 in1016.3 mb 0.00 in0.0 mm 0.00 in0.0 mm 0.00 in0.0 mm
04:00 AM 68.8°F20.4°C 64.1°F17.8°C 85% 1.8 mph S2.9 kmh S 10.3 mph16.6 kmh 30.02 in1016.6 mb 0.00 in0.0 mm 0.00 in0.0 mm 0.00 in0.0 mm
04:15 AM 68.8°F20.4°C 63.8°F17.7°C 84% 1.3 mph S2.1 kmh S 5.6 mph9.0 kmh 30.01 in1016.3 mb 0.00 in0.0 mm 0.00 in0.0 mm 0.00 in0.0 mm
04:30 AM 69.0°F20.6°C 64.0°F17.8°C 84% 1.4 mph SE2.3 kmh SE 8.7 mph14.0 kmh 30.01 in1016.3 mb 0.00 in0.0 mm 0.00 in0.0 mm 0.00 in0.0 mm
04:45 AM 68.8°F20.4°C 63.8°F17.7°C 84% 0.3 mph SW0.5 kmh SW 6.7 mph10.8 kmh 30.01 in1016.3 mb 0.00 in0.0 mm 0.00 in0.0 mm 0.00 in0.0 mm
05:00 AM 68.3°F20.2°C 63.9°F17.7°C 86% 0.1 mph NNW0.2 kmh NNW 6.7 mph10.8 kmh 30.01 in1016.3 mb 0.00 in0.0 mm 0.00 in0.0 mm 0.00 in0.0 mm
05:15 AM 67.9°F19.9°C 63.9°F17.7°C 87% 0.2 mph NNE0.3 kmh NNE 2.8 mph4.5 kmh 30.01 in1016.3 mb 0.00 in0.0 mm 0.00 in0.0 mm 0.00 in0.0 mm
05:30 AM 67.5°F19.7°C 64.2°F17.9°C 89% 2.5 mph SW4.0 kmh SW 9.5 mph15.3 kmh 30.00 in1015.9 mb 0.00 in0.0 mm 0.00 in0.0 mm 0.00 in0.0 mm
05:45 AM 68.8°F20.4°C 64.5°F18.1°C 86% 3.8 mph SW6.1 kmh SW 9.5 mph15.3 kmh 30.00 in1015.9 mb 0.00 in0.0 mm 0.00 in0.0 mm 0.00 in0.0 mm
06:00 AM 69.5°F20.8°C 64.5°F18.1°C 84% 4.4 mph SW7.1 kmh SW 9.5 mph15.3 kmh 30.00 in1015.9 mb 0.00 in0.0 mm 0.00 in0.0 mm 0.00 in0.0 mm
06:15 AM 69.7°F20.9°C 64.3°F17.9°C 83% 4.0 mph SW6.4 kmh SW 10.3 mph16.6 kmh 30.01 in1016.3 mb 0.00 in0.0 mm 0.00 in0.0 mm 0.00 in0.0 mm
06:30 AM 69.7°F20.9°C 64.3°F17.9°C 83% 4.5 mph SW7.2 kmh SW 9.5 mph15.3 kmh 30.02 in1016.6 mb 0.00 in0.0 mm 0.00 in0.0 mm 0.00 in0.0 mm
06:45 AM 69.7°F20.9°C 64.3°F17.9°C 83% 5.6 mph SW9.0 kmh SW 11.5 mph18.5 kmh 30.02 in1016.6 mb 0.00 in0.0 mm 0.00 in0.0 mm 0.00 in0.0 mm
07:00 AM 69.9°F21.1°C 64.2°F17.9°C 82% 4.3 mph WSW6.9 kmh WSW 10.3 mph16.6 kmh 30.03 in1016.9 mb 0.00 in0.0 mm 0.00 in0.0 mm 0.00 in0.0 mm
07:15 AM 70.1°F21.2°C 64.3°F17.9°C 82% 4.6 mph SW7.4 kmh SW 9.5 mph15.3 kmh 30.02 in1016.6 mb 0.00 in0.0 mm 0.00 in0.0 mm 0.00 in0.0 mm
07:30 AM 70.2°F21.2°C 64.5°F18.1°C 82% 4.4 mph SW7.1 kmh SW 8.7 mph14.0 kmh 30.03 in1016.9 mb 0.00 in0.0 mm 0.00 in0.0 mm 0.00 in0.0 mm
07:45 AM 70.4°F21.3°C 64.7°F18.2°C 82% 3.8 mph SW6.1 kmh SW 9.5 mph15.3 kmh 30.03 in1016.9 mb 0.00 in0.0 mm 0.00 in0.0 mm 0.00 in0.0 mm
08:00 AM 70.8°F21.6°C 64.3°F17.9°C 80% 4.5 mph SW7.2 kmh SW 12.3 mph19.8 kmh 30.03 in1016.9 mb 0.00 in0.0 mm 0.00 in0.0 mm 0.00 in0.0 mm
08:15 AM 71.1°F21.7°C 64.7°F18.2°C 80% 4.8 mph WSW7.7 kmh WSW 12.3 mph19.8 kmh 30.03 in1016.9 mb 0.00 in0.0 mm 0.00 in0.0 mm 0.00 in0.0 mm
08:30 AM 71.5°F21.9°C 65.0°F18.3°C 80% 5.3 mph SW8.5 kmh SW 14.3 mph23.0 kmh 30.04 in1017.3 mb 0.00 in0.0 mm 0.00 in0.0 mm 0.00 in0.0 mm
08:45 AM 71.7°F22.1°C 65.2°F18.4°C 80% 4.3 mph WSW6.9 kmh WSW 11.5 mph18.5 kmh 30.04 in1017.3 mb 0.00 in0.0 mm 0.00 in0.0 mm 0.00 in0.0 mm
09:00 AM 72.6°F22.6°C 66.1°F18.9°C 80% 3.4 mph WNW5.5 kmh WNW 10.3 mph16.6 kmh 30.04 in1017.3 mb 0.00 in0.0 mm 0.00 in0.0 mm 0.00 in0.0 mm
09:15 AM 73.1°F22.8°C 66.3°F19.1°C 79% 4.3 mph W6.9 kmh W 10.3 mph16.6 kmh 30.03 in1016.9 mb 0.00 in0.0 mm 0.00 in0.0 mm 0.00 in0.0 mm
09:30 AM 73.8°F23.2°C 66.6°F19.2°C 78% 4.1 mph W6.6 kmh W 10.3 mph16.6 kmh 30.04 in1017.3 mb 0.00 in0.0 mm 0.00 in0.0 mm 0.00 in0.0 mm
09:45 AM 74.7°F23.7°C 66.7°F19.3°C 76% 5.3 mph W8.5 kmh W 14.3 mph23.0 kmh 30.05 in1017.6 mb 0.00 in0.0 mm 0.00 in0.0 mm 0.00 in0.0 mm
10:00 AM 75.1°F23.9°C 66.7°F19.3°C 75% 5.4 mph WSW8.7 kmh WSW 11.5 mph18.5 kmh 30.04 in1017.3 mb 0.00 in0.0 mm 0.00 in0.0 mm 0.00 in0.0 mm
10:15 AM 75.3°F24.1°C 67.2°F19.6°C 76% 3.8 mph W6.1 kmh W 9.5 mph15.3 kmh 30.05 in1017.6 mb 0.00 in0.0 mm 0.00 in0.0 mm 0.00 in0.0 mm
10:30 AM 75.8°F24.3°C 67.4°F19.7°C 75% 3.8 mph N6.1 kmh N 11.5 mph18.5 kmh 30.05 in1017.6 mb 0.00 in0.0 mm 0.00 in0.0 mm 0.00 in0.0 mm
10:45 AM 75.8°F24.3°C 67.0°F19.4°C 74% 4.4 mph WNW7.1 kmh WNW 11.5 mph18.5 kmh 30.06 in1017.9 mb 0.00 in0.0 mm 0.00 in0.0 mm 0.00 in0.0 mm
11:00 AM 76.0°F24.4°C 66.8°F19.3°C 73% 4.7 mph WSW7.6 kmh WSW 9.5 mph15.3 kmh 30.05 in1017.6 mb 0.00 in0.0 mm 0.00 in0.0 mm 0.00 in0.0 mm
11:15 AM 76.4°F24.7°C 67.1°F19.5°C 73% 5.3 mph NW8.5 kmh NW 13.4 mph21.6 kmh 30.05 in1017.6 mb 0.00 in0.0 mm 0.00 in0.0 mm 0.00 in0.0 mm
11:30 AM 77.1°F25.1°C 67.4°F19.7°C 72% 4.1 mph NW6.6 kmh NW 10.3 mph16.6 kmh 30.05 in1017.6 mb 0.00 in0.0 mm 0.00 in0.0 mm 0.00 in0.0 mm
11:45 AM 77.8°F25.4°C 67.7°F19.8°C 71% 4.7 mph NW7.6 kmh NW 10.3 mph16.6 kmh 30.04 in1017.3 mb 0.00 in0.0 mm 0.00 in0.0 mm 0.00 in0.0 mm
12:00 PM 78.2°F25.7°C 67.6°F19.8°C 70% 4.8 mph WSW7.7 kmh WSW 10.3 mph16.6 kmh 30.04 in1017.3 mb 0.00 in0.0 mm 0.00 in0.0 mm 0.00 in0.0 mm
12:15 PM 78.3°F25.7°C 67.8°F19.9°C 70% 3.9 mph WSW6.3 kmh WSW 13.4 mph21.6 kmh 30.04 in1017.3 mb 0.00 in0.0 mm 0.00 in0.0 mm 0.00 in0.0 mm
12:30 PM 78.7°F25.9°C 68.1°F20.1°C 70% 3.4 mph W5.5 kmh W 8.7 mph14.0 kmh 30.04 in1017.3 mb 0.00 in0.0 mm 0.00 in0.0 mm 0.00 in0.0 mm
12:45 PM 78.9°F26.1°C 68.3°F20.2°C 70% 3.6 mph W5.8 kmh W 12.3 mph19.8 kmh 30.03 in1016.9 mb 0.00 in0.0 mm 0.00 in0.0 mm 0.00 in0.0 mm
01:00 PM 80.0°F26.7°C 68.1°F20.1°C 67% 3.9 mph NNW6.3 kmh NNW 10.3 mph16.6 kmh 30.04 in1017.3 mb 0.00 in0.0 mm 0.00 in0.0 mm 0.00 in0.0 mm
01:15 PM 80.0°F26.7°C 67.2°F19.6°C 65% 5.3 mph W8.5 kmh W 13.4 mph21.6 kmh 30.03 in1016.9 mb 0.00 in0.0 mm 0.00 in0.0 mm 0.00 in0.0 mm
01:30 PM 80.0°F26.7°C 65.8°F18.8°C 62% 5.6 mph W9.0 kmh W 16.2 mph26.1 kmh 30.02 in1016.6 mb 0.00 in0.0 mm 0.00 in0.0 mm 0.00 in0.0 mm
01:45 PM 81.4°F27.4°C 66.2°F19.0°C 60% 5.9 mph NW9.5 kmh NW 13.4 mph21.6 kmh 30.01 in1016.3 mb 0.00 in0.0 mm 0.00 in0.0 mm 0.00 in0.0 mm
02:00 PM 81.0°F27.2°C 67.8°F19.9°C 64% 7.2 mph NE11.6 kmh NE 19.0 mph30.6 kmh 30.02 in1016.6 mb 0.00 in0.0 mm 0.00 in0.0 mm 0.00 in0.0 mm
02:15 PM 80.7°F27.1°C 67.9°F19.9°C 65% 4.2 mph N6.8 kmh N 12.3 mph19.8 kmh 30.02 in1016.6 mb 0.00 in0.0 mm 0.00 in0.0 mm 0.00 in0.0 mm
02:30 PM 81.6°F27.6°C 67.4°F19.7°C 62% 4.8 mph NNE7.7 kmh NNE 13.4 mph21.6 kmh 30.02 in1016.6 mb 0.00 in0.0 mm 0.00 in0.0 mm 0.00 in0.0 mm
02:45 PM 82.5°F28.1°C 68.2°F20.1°C 62% 4.2 mph NNW6.8 kmh NNW 12.3 mph19.8 kmh 30.01 in1016.3 mb 0.00 in0.0 mm 0.00 in0.0 mm 0.00 in0.0 mm
03:00 PM 81.6°F27.6°C 67.4°F19.7°C 62% 4.3 mph NNE6.9 kmh NNE 11.5 mph18.5 kmh 30.01 in1016.3 mb 0.00 in0.0 mm 0.00 in0.0 mm 0.00 in0.0 mm
03:15 PM 81.8°F27.7°C 67.5°F19.7°C 62% 4.3 mph NNW6.9 kmh NNW 10.3 mph16.6 kmh 30.00 in1015.9 mb 0.00 in0.0 mm 0.00 in0.0 mm 0.00 in0.0 mm
03:30 PM 82.7°F28.2°C 67.9°F19.9°C 61% 5.3 mph NW8.5 kmh NW 13.4 mph21.6 kmh 30.01 in1016.3 mb 0.00 in0.0 mm 0.00 in0.0 mm 0.00 in0.0 mm
03:45 PM 82.1°F27.8°C 67.9°F19.9°C 62% 5.0 mph NNE8.0 kmh NNE 12.3 mph19.8 kmh 30.00 in1015.9 mb 0.00 in0.0 mm 0.00 in0.0 mm 0.00 in0.0 mm
04:00 PM 81.9°F27.7°C 67.2°F19.6°C 61% 4.0 mph N6.4 kmh N 11.5 mph18.5 kmh 30.00 in1015.9 mb 0.00 in0.0 mm 0.00 in0.0 mm 0.00 in0.0 mm
04:15 PM 81.6°F27.6°C 67.8°F19.9°C 63% 3.0 mph N4.8 kmh N 11.5 mph18.5 kmh 30.00 in1015.9 mb 0.00 in0.0 mm 0.00 in0.0 mm 0.00 in0.0 mm
04:30 PM 80.9°F27.2°C 67.1°F19.5°C 63% 5.0 mph N8.0 kmh N 13.4 mph21.6 kmh 30.00 in1015.9 mb 0.00 in0.0 mm 0.00 in0.0 mm 0.00 in0.0 mm
04:45 PM 80.9°F27.2°C 66.7°F19.3°C 62% 3.9 mph NE6.3 kmh NE 9.5 mph15.3 kmh 30.00 in1015.9 mb 0.00 in0.0 mm 0.00 in0.0 mm 0.00 in0.0 mm
05:00 PM 80.5°F26.9°C 66.8°F19.3°C 63% 5.0 mph NE8.0 kmh NE 15.1 mph24.3 kmh 30.01 in1016.3 mb 0.00 in0.0 mm 0.00 in0.0 mm 0.00 in0.0 mm
05:15 PM 80.7°F27.1°C 67.0°F19.4°C 63% 3.8 mph N6.1 kmh N 8.7 mph14.0 kmh 30.00 in1015.9 mb 0.00 in0.0 mm 0.00 in0.0 mm 0.00 in0.0 mm
05:30 PM 80.5°F26.9°C 66.3°F19.1°C 62% 4.0 mph N6.4 kmh N 10.3 mph16.6 kmh 30.00 in1015.9 mb 0.00 in0.0 mm 0.00 in0.0 mm 0.00 in0.0 mm
05:45 PM 79.2°F26.2°C 66.1°F18.9°C 64% 4.2 mph NE6.8 kmh NE 11.5 mph18.5 kmh 30.00 in1015.9 mb 0.00 in0.0 mm 0.00 in0.0 mm 0.00 in0.0 mm
06:00 PM 78.3°F25.7°C 65.2°F18.4°C 64% 3.7 mph N6.0 kmh N 10.3 mph16.6 kmh 30.01 in1016.3 mb 0.00 in0.0 mm 0.00 in0.0 mm 0.00 in0.0 mm
06:15 PM 77.8°F25.4°C 64.7°F18.2°C 64% 2.7 mph N4.3 kmh N 7.5 mph12.1 kmh 30.01 in1016.3 mb 0.00 in0.0 mm 0.00 in0.0 mm 0.00 in0.0 mm
06:30 PM 77.8°F25.4°C 64.7°F18.2°C 64% 2.5 mph N4.0 kmh N 12.3 mph19.8 kmh 30.01 in1016.3 mb 0.00 in0.0 mm 0.00 in0.0 mm 0.00 in0.0 mm
06:45 PM 76.7°F24.8°C 65.0°F18.3°C 67% 2.4 mph NW3.9 kmh NW 5.6 mph9.0 kmh 30.02 in1016.6 mb 0.00 in0.0 mm 0.00 in0.0 mm 0.00 in0.0 mm
07:00 PM 76.0°F24.4°C 64.7°F18.2°C 68% 2.3 mph WNW3.7 kmh WNW 6.7 mph10.8 kmh 30.01 in1016.3 mb 0.00 in0.0 mm 0.00 in0.0 mm 0.00 in0.0 mm
07:15 PM 75.5°F24.2°C 64.2°F17.9°C 68% 1.7 mph WNW2.7 kmh WNW 6.7 mph10.8 kmh 30.01 in1016.3 mb 0.00 in0.0 mm 0.00 in0.0 mm 0.00 in0.0 mm
07:30 PM 74.9°F23.8°C 64.5°F18.1°C 70% 1.0 mph W1.6 kmh W 4.8 mph7.7 kmh 30.02 in1016.6 mb 0.00 in0.0 mm 0.00 in0.0 mm 0.00 in0.0 mm
07:45 PM 74.4°F23.6°C 64.4°F18.0°C 71% 2.0 mph W3.2 kmh W 4.8 mph7.7 kmh 30.02 in1016.6 mb 0.00 in0.0 mm 0.00 in0.0 mm 0.00 in0.0 mm
08:00 PM 73.8°F23.2°C 64.3°F17.9°C 72% 0.9 mph SW1.4 kmh SW 3.9 mph6.3 kmh 30.02 in1016.6 mb 0.00 in0.0 mm 0.00 in0.0 mm 0.00 in0.0 mm
08:15 PM 73.3°F22.9°C 64.2°F17.9°C 73% 1.0 mph WSW1.6 kmh WSW 3.9 mph6.3 kmh 30.03 in1016.9 mb 0.00 in0.0 mm 0.00 in0.0 mm 0.00 in0.0 mm
08:30 PM 72.6°F22.6°C 63.9°F17.7°C 74% 1.1 mph SW1.8 kmh SW 5.6 mph9.0 kmh 30.03 in1016.9 mb 0.00 in0.0 mm 0.00 in0.0 mm 0.00 in0.0 mm
08:45 PM 72.4°F22.4°C 64.1°F17.8°C 75% 1.1 mph SW1.8 kmh SW 3.9 mph6.3 kmh 30.03 in1016.9 mb 0.00 in0.0 mm 0.00 in0.0 mm 0.00 in0.0 mm
09:00 PM 71.9°F22.2°C 63.2°F17.3°C 74% 0.7 mph WSW1.1 kmh WSW 2.8 mph4.5 kmh 30.04 in1017.3 mb 0.00 in0.0 mm 0.00 in0.0 mm 0.00 in0.0 mm
09:15 PM 71.9°F22.2°C 63.5°F17.5°C 75% 1.2 mph SW1.9 kmh SW 2.8 mph4.5 kmh 30.04 in1017.3 mb 0.00 in0.0 mm 0.00 in0.0 mm 0.00 in0.0 mm
09:30 PM 71.1°F21.7°C 63.6°F17.6°C 77% 0.7 mph SW1.1 kmh SW 2.8 mph4.5 kmh 30.04 in1017.3 mb 0.00 in0.0 mm 0.00 in0.0 mm 0.00 in0.0 mm
09:45 PM 70.4°F21.3°C 63.6°F17.6°C 79% 1.4 mph SW2.3 kmh SW 3.9 mph6.3 kmh 30.03 in1016.9 mb 0.00 in0.0 mm 0.00 in0.0 mm 0.00 in0.0 mm
10:00 PM 70.1°F21.2°C 63.6°F17.6°C 80% 1.7 mph SW2.7 kmh SW 4.8 mph7.7 kmh 30.03 in1016.9 mb 0.00 in0.0 mm 0.00 in0.0 mm 0.00 in0.0 mm
10:15 PM 70.1°F21.2°C 63.3°F17.4°C 79% 2.5 mph SW4.0 kmh SW 4.8 mph7.7 kmh 30.03 in1016.9 mb 0.00 in0.0 mm 0.00 in0.0 mm 0.00 in0.0 mm
10:30 PM 70.1°F21.2°C 62.9°F17.2°C 78% 0.8 mph S1.3 kmh S 3.9 mph6.3 kmh 30.04 in1017.3 mb 0.00 in0.0 mm 0.00 in0.0 mm 0.00 in0.0 mm
10:45 PM 69.3°F20.7°C 62.6°F17.0°C 79% 0.7 mph SSW1.1 kmh SSW 2.8 mph4.5 kmh 30.04 in1017.3 mb 0.00 in0.0 mm 0.00 in0.0 mm 0.00 in0.0 mm
11:00 PM 68.8°F20.4°C 62.4°F16.9°C 80% 0.2 mph WSW0.3 kmh WSW 2.8 mph4.5 kmh 30.04 in1017.3 mb 0.00 in0.0 mm 0.00 in0.0 mm 0.00 in0.0 mm
11:15 PM 68.4°F20.2°C 62.8°F17.1°C 82% 0.8 mph SW1.3 kmh SW 4.8 mph7.7 kmh 30.05 in1017.6 mb 0.00 in0.0 mm 0.00 in0.0 mm 0.00 in0.0 mm
11:30 PM 68.4°F20.2°C 62.8°F17.1°C 82% Calm Calm 0.8 mph1.3 kmh 30.04 in1017.3 mb 0.00 in0.0 mm 0.00 in0.0 mm 0.00 in0.0 mm
11:45 PM 67.9°F19.9°C 62.6°F17.0°C 83% 0.1 mph E0.2 kmh E 2.0 mph3.2 kmh 30.04 in1017.3 mb 0.00 in0.0 mm 0.00 in0.0 mm 0.00 in0.0 mm